Time;durP1;ratioP1;P1;durP2;ratioP2;P2;SDS_P1;SDS_P2;PMS_P1;PMS_P2;Temp;Humidity;BMP_temperature;BMP_pressure;BME280_temperature;BME280_humidity;BME280_pressure;Samples;Min_cycle;Max_cycle;Signal;HPM_P1;HPM_P2
2022/07/30 00:01:29;;;;;;;0.00;0.00;;;22.30;99.90;;;;;;5103625;28;20020;-74
2022/07/30 00:03:54;;;;;;;0.00;0.00;;;22.30;99.90;;;;;;5103779;28;20121;-73
2022/07/30 00:06:20;;;;;;;0.00;0.00;;;22.20;99.90;;;;;;5102202;28;20324;-74
2022/07/30 00:08:46;;;;;;;0.00;0.00;;;22.20;99.90;;;;;;5102795;28;20177;-73
2022/07/30 00:11:11;;;;;;;0.00;0.00;;;22.20;99.90;;;;;;5103567;28;20020;-80
2022/07/30 00:13:37;;;;;;;0.00;0.00;;;22.10;99.90;;;;;;5104158;28;20026;-75
2022/07/30 00:16:03;;;;;;;0.00;0.00;;;22.00;99.90;;;;;;5103505;28;20044;-74
2022/07/30 00:18:28;;;;;;;0.00;0.00;;;22.00;99.90;;;;;;5103328;28;20085;-74
2022/07/30 00:20:54;;;;;;;0.00;0.00;;;22.00;99.90;;;;;;5102472;28;20024;-73
2022/07/30 00:23:20;;;;;;;0.00;0.00;;;21.90;99.90;;;;;;5103292;28;20314;-74
2022/07/30 00:25:45;;;;;;;0.00;0.00;;;21.90;99.90;;;;;;5103368;28;20070;-73
2022/07/30 00:28:11;;;;;;;0.00;0.00;;;21.90;99.90;;;;;;5102538;28;20084;-73
2022/07/30 00:30:39;;;;;;;0.00;0.00;;;21.90;99.90;;;;;;5102911;28;20024;-72
2022/07/30 00:33:05;;;;;;;0.00;0.00;;;21.80;99.90;;;;;;5103580;28;20016;-73
2022/07/30 00:35:30;;;;;;;0.00;0.00;;;21.80;99.90;;;;;;5101500;28;20035;-73
2022/07/30 00:37:56;;;;;;;0.00;0.00;;;21.80;99.90;;;;;;5103097;28;20043;-73
2022/07/30 00:40:22;;;;;;;0.00;0.00;;;21.80;99.90;;;;;;5102467;28;20066;-72
2022/07/30 00:42:48;;;;;;;0.00;0.00;;;21.70;99.90;;;;;;5102129;28;20016;-73
2022/07/30 00:45:15;;;;;;;0.00;0.00;;;21.60;99.90;;;;;;5101797;28;20309;-72
2022/07/30 00:47:41;;;;;;;0.00;0.00;;;21.60;99.90;;;;;;5106163;22;20122;-73
2022/07/30 00:50:08;;;;;;;0.00;0.00;;;21.60;99.90;;;;;;5082562;28;20343;-73
2022/07/30 00:52:37;;;;;;;0.00;0.00;;;21.60;99.90;;;;;;5082330;28;20149;-73
2022/07/30 00:55:03;;;;;;;0.00;0.00;;;21.60;99.90;;;;;;5082805;28;20153;-73
2022/07/30 00:57:29;;;;;;;0.00;0.00;;;21.60;99.90;;;;;;5082492;28;20046;-73
2022/07/30 00:59:55;;;;;;;0.00;0.00;;;21.50;99.90;;;;;;5065158;28;20048;-73
2022/07/30 01:02:20;;;;;;;0.00;0.00;;;21.50;99.90;;;;;;5082156;28;20039;-73
2022/07/30 01:04:46;;;;;;;0.00;0.00;;;21.50;99.90;;;;;;5082807;28;20021;-73
2022/07/30 01:07:12;;;;;;;0.00;0.00;;;21.50;99.90;;;;;;5083005;28;20020;-73
2022/07/30 01:09:38;;;;;;;0.00;0.00;;;21.50;99.90;;;;;;5082231;28;20047;-73
2022/07/30 01:12:05;;;;;;;0.00;0.00;;;21.50;99.90;;;;;;5082789;28;20016;-73
2022/07/30 01:14:33;;;;;;;0.00;0.00;;;21.50;99.90;;;;;;5082076;28;20020;-73
2022/07/30 01:16:59;;;;;;;;;;;21.50;99.90;;;;;;5082985;28;20044;-73
2022/07/30 01:19:50;;;;;;;0.00;0.00;;;21.50;99.90;;;;;;5082347;28;19926;-74
2022/07/30 01:22:27;;;;;;;0.00;0.00;;;21.40;99.90;;;;;;5082536;28;20025;-73
2022/07/30 01:25:30;;;;;;;0.00;0.00;;;21.40;99.90;;;;;;5082225;28;20145;-73
2022/07/30 01:28:09;;;;;;;0.00;0.00;;;21.40;99.90;;;;;;5031346;28;20036;-72
2022/07/30 01:30:39;;;;;;;0.00;0.00;;;21.40;99.90;;;;;;5081977;28;20021;-73
2022/07/30 01:33:07;;;;;;;0.00;0.00;;;21.40;99.90;;;;;;5081884;28;20024;-73
2022/07/30 01:35:34;;;;;;;0.00;0.00;;;21.40;99.90;;;;;;5081457;28;20035;-72
2022/07/30 01:38:03;;;;;;;0.00;0.00;;;21.40;99.90;;;;;;5082095;28;20335;-73
2022/07/30 01:40:30;;;;;;;0.00;0.00;;;21.50;99.90;;;;;;5081724;28;20303;-73
2022/07/30 01:42:59;;;;;;;0.00;0.00;;;21.50;99.90;;;;;;5082497;28;20047;-74
2022/07/30 01:45:28;;;;;;;0.00;0.00;;;21.50;99.90;;;;;;5081671;28;20191;-74
2022/07/30 01:47:57;;;;;;;0.00;0.00;;;21.40;99.90;;;;;;5082087;28;20074;-74
2022/07/30 01:50:23;;;;;;;0.00;0.00;;;21.40;99.90;;;;;;5081673;28;20024;-74
2022/07/30 01:52:51;;;;;;;0.00;0.00;;;21.40;99.90;;;;;;5064385;28;20207;-74
2022/07/30 01:55:20;;;;;;;;;;;21.40;99.90;;;;;;5064244;28;20016;-72
2022/07/30 01:57:47;;;;;;;0.00;0.00;;;21.40;99.90;;;;;;5082158;28;19940;-73
2022/07/30 02:00:13;;;;;;;0.00;0.00;;;21.30;99.90;;;;;;5064144;28;20028;-73
2022/07/30 02:02:40;;;;;;;0.00;0.00;;;21.30;99.90;;;;;;5063753;28;20176;-74
2022/07/30 02:05:07;;;;;;;0.00;0.00;;;21.30;99.90;;;;;;5081708;28;20027;-73
2022/07/30 02:07:59;;;;;;;0.00;0.00;;;21.30;99.90;;;;;;5081477;28;20024;-74
2022/07/30 02:10:39;;;;;;;0.00;0.00;;;21.30;99.90;;;;;;5055350;28;20211;-74
2022/07/30 02:13:07;;;;;;;0.00;0.00;;;21.30;99.90;;;;;;5081886;28;20020;-73
2022/07/30 02:15:44;;;;;;;0.00;0.00;;;21.30;99.90;;;;;;5080980;28;20036;-73
2022/07/30 02:18:19;;;;;;;0.00;0.00;;;21.30;99.90;;;;;;5081743;28;20031;-74
2022/07/30 02:20:53;;;;;;;0.00;0.00;;;21.30;99.90;;;;;;5064981;28;20047;-73
2022/07/30 02:23:20;;;;;;;0.00;0.00;;;21.20;99.90;;;;;;5085700;28;20020;-73
2022/07/30 02:25:50;;;;;;;0.00;0.00;;;21.20;99.90;;;;;;5085243;28;20025;-74
2022/07/30 02:28:18;;;;;;;0.00;0.00;;;21.20;99.90;;;;;;5085324;28;20143;-74
2022/07/30 02:30:50;;;;;;;0.00;0.00;;;21.10;99.90;;;;;;5085301;28;20029;-75
2022/07/30 02:33:20;;;;;;;0.00;0.00;;;21.10;99.90;;;;;;5085577;28;20024;-75
2022/07/30 02:35:46;;;;;;;0.00;0.00;;;21.10;99.90;;;;;;5085067;28;20020;-74
2022/07/30 02:38:14;;;;;;;0.00;0.00;;;21.00;99.90;;;;;;5085529;28;20098;-74
2022/07/30 02:40:42;;;;;;;0.00;0.00;;;21.00;99.90;;;;;;5067283;28;20066;-75
2022/07/30 02:43:08;;;;;;;0.00;0.00;;;21.00;99.90;;;;;;5085530;28;20072;-74
2022/07/30 02:45:35;;;;;;;0.00;0.00;;;21.00;99.90;;;;;;5084824;28;20053;-73
2022/07/30 02:48:05;;;;;;;0.00;0.00;;;20.90;99.90;;;;;;5085410;28;20071;-75
2022/07/30 02:50:31;;;;;;;0.00;0.00;;;20.90;99.90;;;;;;5084857;28;20041;-74
2022/07/30 02:52:59;;;;;;;0.00;0.00;;;20.90;99.90;;;;;;5085090;28;20051;-74
2022/07/30 02:55:28;;;;;;;0.00;0.00;;;20.80;99.90;;;;;;5084722;28;20024;-81
2022/07/30 02:57:55;;;;;;;0.00;0.00;;;20.80;99.90;;;;;;5084935;28;20178;-73
2022/07/30 03:00:22;;;;;;;0.00;0.00;;;20.80;99.90;;;;;;5085099;28;20020;-74
2022/07/30 03:02:49;;;;;;;0.00;0.00;;;20.80;99.90;;;;;;5084663;28;20047;-74
2022/07/30 03:05:15;;;;;;;0.00;0.00;;;20.70;99.90;;;;;;5084889;28;20251;-74
2022/07/30 03:07:41;;;;;;;0.00;0.00;;;20.80;99.90;;;;;;5066742;28;20021;-74
2022/07/30 03:10:08;;;;;;;0.00;0.00;;;20.80;99.90;;;;;;5084957;28;20236;-73
2022/07/30 03:12:36;;;;;;;0.00;0.00;;;20.70;99.90;;;;;;5084590;28;20021;-73
2022/07/30 03:15:01;;;;;;;0.00;0.00;;;20.70;99.90;;;;;;5084713;28;20183;-74
2022/07/30 03:17:32;;;;;;;0.00;0.00;;;20.70;99.90;;;;;;5083855;28;20032;-75
2022/07/30 03:19:59;;;;;;;0.00;0.00;;;20.70;99.90;;;;;;5067148;28;20024;-73
2022/07/30 03:22:26;;;;;;;0.00;0.00;;;20.70;99.90;;;;;;5084534;28;20027;-72
2022/07/30 03:24:54;;;;;;;0.00;0.00;;;20.70;99.90;;;;;;5066395;28;20024;-73
2022/07/30 03:27:21;;;;;;;0.00;0.00;;;20.70;99.90;;;;;;5066447;28;20020;-73
2022/07/30 03:29:48;;;;;;;0.00;0.00;;;20.70;99.90;;;;;;5084258;28;20036;-73
2022/07/30 03:32:14;;;;;;;0.00;0.00;;;20.70;99.90;;;;;;5066173;28;20020;-74
2022/07/30 03:34:41;;;;;;;0.00;0.00;;;20.70;99.90;;;;;;5084045;28;20043;-72
2022/07/30 03:37:07;;;;;;;0.00;0.00;;;20.70;99.90;;;;;;5084214;28;20021;-72
2022/07/30 03:39:34;;;;;;;0.00;0.00;;;20.70;99.90;;;;;;5083803;28;20024;-73
2022/07/30 03:42:01;;;;;;;0.00;0.00;;;20.80;99.90;;;;;;5084439;28;20028;-73
2022/07/30 03:44:28;;;;;;;0.00;0.00;;;20.80;99.90;;;;;;5084285;28;20020;-73
2022/07/30 03:46:54;;;;;;;0.00;0.00;;;20.80;99.90;;;;;;5066268;28;20060;-73
2022/07/30 03:49:21;;;;;;;0.00;0.00;;;20.90;99.90;;;;;;5083839;28;20063;-75
2022/07/30 03:51:49;;;;;;;0.00;0.00;;;20.90;99.90;;;;;;5083757;28;20031;-73
2022/07/30 03:54:15;;;;;;;0.00;0.00;;;20.90;99.90;;;;;;5084297;28;20035;-74
2022/07/30 03:56:42;;;;;;;0.00;0.00;;;20.90;99.90;;;;;;5065764;28;20215;-75
2022/07/30 03:59:08;;;;;;;0.00;0.00;;;20.90;99.90;;;;;;5083720;28;20028;-75
2022/07/30 04:01:33;;;;;;;0.00;0.00;;;20.90;99.90;;;;;;5083412;28;20073;-75
2022/07/30 04:04:07;;;;;;;0.00;0.00;;;20.90;99.90;;;;;;5083883;28;20024;-74
2022/07/30 04:06:38;;;;;;;0.00;0.00;;;20.80;99.90;;;;;;5082883;28;20346;-73
2022/07/30 04:09:05;;;;;;;0.00;0.00;;;20.80;99.90;;;;;;5083568;28;20024;-74
2022/07/30 04:11:31;;;;;;;0.00;0.00;;;20.80;99.90;;;;;;5083075;28;20311;-77
2022/07/30 04:13:56;;;;;;;0.00;0.00;;;20.80;99.90;;;;;;5083550;28;20020;-73
2022/07/30 04:16:35;;;;;;;0.00;0.00;;;20.80;99.90;;;;;;5065269;28;20069;-73
2022/07/30 04:19:05;;;;;;;0.00;0.00;;;20.80;99.90;;;;;;5083042;28;20149;-73
2022/07/30 04:21:32;;;;;;;0.00;0.00;;;20.70;99.90;;;;;;5083306;28;20084;-73
2022/07/30 04:24:00;;;;;;;0.00;0.00;;;20.50;99.90;;;;;;5083350;28;20062;-74
2022/07/30 04:26:30;;;;;;;0.00;0.00;;;20.70;99.90;;;;;;5082763;28;20082;-74
2022/07/30 04:28:57;;;;;;;0.00;0.00;;;20.70;99.90;;;;;;5082569;28;20227;-73
2022/07/30 04:31:22;;;;;;;0.00;0.00;;;20.70;99.90;;;;;;5083274;28;20054;-75
2022/07/30 04:33:48;;;;;;;0.00;0.00;;;20.70;99.90;;;;;;5082698;28;20020;-74
2022/07/30 04:36:14;;;;;;;0.00;0.00;;;20.70;99.90;;;;;;5082572;28;20022;-74
2022/07/30 04:38:39;;;;;;;0.00;0.00;;;20.70;99.90;;;;;;5082456;28;20033;-74
2022/07/30 04:41:05;;;;;;;0.00;0.00;;;20.80;99.90;;;;;;5083082;28;20078;-73
2022/07/30 04:43:31;;;;;;;0.00;0.00;;;20.70;99.90;;;;;;5064717;28;20038;-73
2022/07/30 04:45:56;;;;;;;0.00;0.00;;;20.70;99.90;;;;;;5082613;28;20047;-73
2022/07/30 04:48:24;;;;;;;0.00;0.00;;;20.70;99.90;;;;;;5065292;28;20339;-73
2022/07/30 04:50:52;;;;;;;;;;;20.70;99.90;;;;;;5083343;28;20050;-73
2022/07/30 04:53:19;;;;;;;0.00;0.00;;;20.70;99.90;;;;;;5083229;28;19901;-73
2022/07/30 04:55:47;;;;;;;0.00;0.00;;;20.70;99.90;;;;;;5082455;28;20056;-74
2022/07/30 04:58:15;;;;;;;0.00;0.00;;;20.70;99.90;;;;;;5083222;28;20016;-73
2022/07/30 05:00:41;;;;;;;0.00;0.00;;;20.70;99.90;;;;;;5082932;28;20032;-73
2022/07/30 05:03:10;;;;;;;0.00;0.00;;;20.60;99.90;;;;;;5082766;28;20107;-73
2022/07/30 05:05:37;;;;;;;0.00;0.00;;;20.60;99.90;;;;;;5082259;28;20259;-74
2022/07/30 05:08:03;;;;;;;0.00;0.00;;;20.70;99.90;;;;;;5083180;28;20325;-73
2022/07/30 05:10:29;;;;;;;0.00;0.00;;;20.70;99.90;;;;;;5083166;28;20055;-73
2022/07/30 05:12:54;;;;;;;0.00;0.00;;;20.70;99.90;;;;;;5082618;28;20016;-73
2022/07/30 05:15:20;;;;;;;0.00;0.00;;;20.70;99.90;;;;;;5082987;28;20079;-74
2022/07/30 05:17:45;;;;;;;0.00;0.00;;;20.70;99.90;;;;;;5064050;28;20017;-72
2022/07/30 05:20:11;;;;;;;0.00;0.00;;;20.70;99.90;;;;;;5082513;28;20083;-74
2022/07/30 05:22:37;;;;;;;0.00;0.00;;;20.70;99.90;;;;;;5064671;28;20036;-76
2022/07/30 05:25:03;;;;;;;0.00;0.00;;;20.60;99.90;;;;;;5083002;28;20024;-74
2022/07/30 05:27:28;;;;;;;0.00;0.00;;;20.70;99.90;;;;;;5082820;28;20020;-74
2022/07/30 05:29:54;;;;;;;0.00;0.00;;;20.60;99.90;;;;;;5082415;28;20287;-73
2022/07/30 05:32:20;;;;;;;0.00;0.00;;;20.60;99.90;;;;;;5082559;28;20044;-73
2022/07/30 05:34:45;;;;;;;0.00;0.00;;;20.60;99.90;;;;;;5064575;28;20021;-74
2022/07/30 05:37:11;;;;;;;0.00;0.00;;;20.60;99.90;;;;;;5082356;28;20095;-74
2022/07/30 05:39:37;;;;;;;0.00;0.00;;;20.50;99.90;;;;;;5082442;28;20084;-73
2022/07/30 05:42:02;;;;;;;0.00;0.00;;;20.50;99.90;;;;;;5082440;28;20096;-73
2022/07/30 05:44:28;;;;;;;0.00;0.00;;;20.50;99.90;;;;;;5083058;28;20028;-72
2022/07/30 05:46:54;;;;;;;0.00;0.00;;;20.50;99.90;;;;;;5082051;28;20343;-73
2022/07/30 05:49:19;;;;;;;0.00;0.00;;;20.50;99.90;;;;;;5082717;28;20098;-74
2022/07/30 05:51:45;;;;;;;0.00;0.00;;;20.60;99.90;;;;;;5082404;28;20295;-74
2022/07/30 05:54:11;;;;;;;0.00;0.00;;;20.60;99.90;;;;;;5065125;28;20035;-74
2022/07/30 05:56:36;;;;;;;0.00;0.00;;;20.60;99.90;;;;;;5086678;28;20024;-73
2022/07/30 05:59:02;;;;;;;0.00;0.00;;;20.60;99.90;;;;;;5086254;28;20299;-74
2022/07/30 06:01:28;;;;;;;0.00;0.00;;;20.60;99.90;;;;;;5086786;28;20172;-73
2022/07/30 06:03:54;;;;;;;0.00;0.00;;;20.60;99.90;;;;;;5068342;28;20028;-74
2022/07/30 06:06:19;;;;;;;0.00;0.00;;;20.50;99.90;;;;;;5085996;28;20028;-73
2022/07/30 06:08:45;;;;;;;0.00;0.00;;;20.50;99.90;;;;;;5068047;28;20035;-74
2022/07/30 06:11:11;;;;;;;0.00;0.00;;;20.50;99.90;;;;;;5086531;28;20016;-74
2022/07/30 06:13:37;;;;;;;0.00;0.00;;;20.50;99.90;;;;;;5086403;28;20012;-75
2022/07/30 06:16:03;;;;;;;0.00;0.00;;;20.50;99.90;;;;;;5085764;28;20134;-72
2022/07/30 06:18:28;;;;;;;0.00;0.00;;;20.50;99.90;;;;;;5086308;28;20028;-75
2022/07/30 06:20:54;;;;;;;0.00;0.00;;;20.40;99.90;;;;;;5085820;28;20027;-75
2022/07/30 06:23:21;;;;;;;0.00;0.00;;;20.40;99.90;;;;;;5051890;28;20036;-74
2022/07/30 06:25:48;;;;;;;0.00;0.00;;;20.40;99.90;;;;;;5085678;28;20020;-74
2022/07/30 06:28:14;;;;;;;0.00;0.00;;;20.40;99.90;;;;;;5086049;28;20319;-74
2022/07/30 06:30:40;;;;;;;0.00;0.00;;;20.40;99.90;;;;;;5085991;28;20028;-74
2022/07/30 06:33:06;;;;;;;0.00;0.00;;;20.40;99.90;;;;;;5067459;28;20024;-76
2022/07/30 06:35:33;;;;;;;0.00;0.00;;;20.50;99.90;;;;;;5086092;28;20013;-77
2022/07/30 06:37:59;;;;;;;0.00;0.00;;;20.60;99.90;;;;;;5085170;28;20074;-74
2022/07/30 06:40:25;;;;;;;0.00;0.00;;;20.80;99.90;;;;;;5085626;28;20028;-76
2022/07/30 06:42:50;;;;;;;0.00;0.00;;;21.00;99.90;;;;;;5067633;28;20020;-75
2022/07/30 06:45:16;;;;;;;0.00;0.00;;;21.10;99.90;;;;;;5067998;28;20017;-78
2022/07/30 06:47:42;;;;;;;0.00;0.00;;;21.10;99.90;;;;;;5085430;28;20048;-78
2022/07/30 06:50:08;;;;;;;0.00;0.00;;;20.90;99.90;;;;;;5067680;28;20024;-76
2022/07/30 06:52:34;;;;;;;0.00;0.00;;;20.80;99.90;;;;;;5085474;28;20017;-77
2022/07/30 06:55:00;;;;;;;0.00;0.00;;;20.90;99.90;;;;;;5085479;28;20040;-76
2022/07/30 06:57:25;;;;;;;0.00;0.00;;;21.10;99.90;;;;;;5085544;28;20238;-77
2022/07/30 06:59:51;;;;;;;0.00;0.00;;;21.20;99.90;;;;;;5085468;28;20051;-76
2022/07/30 07:02:17;;;;;;;0.00;0.00;;;21.30;99.90;;;;;;5067700;28;20062;-76
2022/07/30 07:04:42;;;;;;;0.00;0.00;;;21.40;99.90;;;;;;5085563;28;20029;-76
2022/07/30 07:07:08;;;;;;;0.00;0.00;;;21.30;99.90;;;;;;5083933;28;20024;-76
2022/07/30 07:09:34;;;;;;;0.00;0.00;;;21.30;99.90;;;;;;5085354;28;20024;-76
2022/07/30 07:11:59;;;;;;;0.00;0.00;;;21.40;99.90;;;;;;5084636;28;20028;-74
2022/07/30 07:14:25;;;;;;;0.00;0.00;;;21.40;99.90;;;;;;5085037;28;20051;-75
2022/07/30 07:16:51;;;;;;;0.00;0.00;;;21.40;99.90;;;;;;5084482;28;20029;-76
2022/07/30 07:19:17;;;;;;;0.00;0.00;;;21.40;99.90;;;;;;5085061;28;20031;-75
2022/07/30 07:21:42;;;;;;;0.00;0.00;;;21.40;99.90;;;;;;5084939;28;20088;-76
2022/07/30 07:24:08;;;;;;;0.00;0.00;;;21.40;99.90;;;;;;5084595;28;20051;-76
2022/07/30 07:26:34;;;;;;;0.00;0.00;;;21.50;99.90;;;;;;5085064;28;20091;-76
2022/07/30 07:29:00;;;;;;;0.00;0.00;;;21.50;99.90;;;;;;5084395;28;20021;-77
2022/07/30 07:31:26;;;;;;;0.00;0.00;;;21.50;99.90;;;;;;5067520;28;20191;-76
2022/07/30 07:33:53;;;;;;;0.00;0.00;;;21.40;99.90;;;;;;5060589;28;20017;-77
2022/07/30 07:36:22;;;;;;;0.00;0.00;;;21.40;99.90;;;;;;5055031;28;20100;-76
2022/07/30 07:38:48;;;;;;;0.00;0.00;;;21.50;99.90;;;;;;5070343;28;20211;-76
2022/07/30 07:41:15;;;;;;;0.00;0.00;;;21.40;99.90;;;;;;5076493;28;20036;-78
2022/07/30 07:43:41;;;;;;;0.00;0.00;;;21.40;99.90;;;;;;5059778;28;20008;-76
2022/07/30 07:46:08;;;;;;;0.00;0.00;;;21.40;99.90;;;;;;5071278;28;20032;-77
2022/07/30 07:48:33;;;;;;;0.00;0.00;;;21.40;99.90;;;;;;5058165;28;20040;-74
2022/07/30 07:50:59;;;;;;;0.00;0.00;;;21.50;99.90;;;;;;5078053;28;20020;-80
2022/07/30 07:53:25;;;;;;;0.00;0.00;;;21.50;99.90;;;;;;5055019;28;20017;-80
2022/07/30 07:55:51;;;;;;;0.00;0.00;;;21.50;99.90;;;;;;5055388;28;20051;-79
2022/07/30 07:58:17;;;;;;;0.00;0.00;;;21.60;99.90;;;;;;5062800;28;20029;-73
2022/07/30 08:00:42;;;;;;;0.00;0.00;;;21.60;99.90;;;;;;5080415;28;20036;-73
2022/07/30 08:03:08;;;;;;;0.00;0.00;;;21.60;99.90;;;;;;5048507;28;20299;-73
2022/07/30 08:05:34;;;;;;;0.00;0.00;;;21.60;99.90;;;;;;5058693;28;20130;-72
2022/07/30 08:07:59;;;;;;;0.00;0.00;;;21.70;99.90;;;;;;5067191;28;20032;-73
2022/07/30 08:10:25;;;;;;;0.00;0.00;;;21.70;99.90;;;;;;5074405;28;20039;-74
2022/07/30 08:12:52;;;;;;;0.00;0.00;;;21.70;99.90;;;;;;5073910;28;20021;-73
2022/07/30 08:15:18;;;;;;;0.00;0.00;;;21.70;99.90;;;;;;5083563;28;20021;-72
2022/07/30 08:17:44;;;;;;;0.00;0.00;;;21.80;99.90;;;;;;5074326;28;20020;-72
2022/07/30 08:20:12;;;;;;;0.00;0.00;;;21.80;99.90;;;;;;5066764;28;20365;-73
2022/07/30 08:22:38;;;;;;;0.00;0.00;;;21.80;99.90;;;;;;5076034;28;20017;-71
2022/07/30 08:25:04;;;;;;;0.00;0.00;;;21.80;99.90;;;;;;5074615;28;20240;-73
2022/07/30 08:27:30;;;;;;;0.00;0.00;;;21.90;99.90;;;;;;5068894;28;20025;-72
2022/07/30 08:29:56;;;;;;;0.00;0.00;;;21.90;99.90;;;;;;5056884;28;20251;-72
2022/07/30 08:32:22;;;;;;;0.00;0.00;;;21.90;99.90;;;;;;5077912;28;20017;-72
2022/07/30 08:34:48;;;;;;;0.00;0.00;;;21.80;99.90;;;;;;5071829;28;20028;-72
2022/07/30 08:37:14;;;;;;;0.00;0.00;;;21.80;99.90;;;;;;5064933;28;20016;-73
2022/07/30 08:39:40;;;;;;;0.00;0.00;;;21.80;99.90;;;;;;5049537;28;20033;-75
2022/07/30 08:42:05;;;;;;;0.00;0.00;;;21.80;99.90;;;;;;5070922;28;20054;-74
2022/07/30 08:44:34;;;;;;;0.00;0.00;;;21.80;99.90;;;;;;5076580;28;20025;-74
2022/07/30 08:47:02;;;;;;;0.00;0.00;;;21.90;99.90;;;;;;5072836;28;20345;-74
2022/07/30 08:49:28;;;;;;;;;;;21.80;99.90;;;;;;5078951;28;20048;-74
2022/07/30 08:51:54;;;;;;;0.00;0.00;;;21.90;99.90;;;;;;5076883;28;19907;-74
2022/07/30 08:54:20;;;;;;;0.00;0.00;;;21.80;99.90;;;;;;5068431;28;20041;-74
2022/07/30 08:56:48;;;;;;;0.00;0.00;;;21.80;99.90;;;;;;5055934;28;20128;-74
2022/07/30 08:59:15;;;;;;;0.00;0.00;;;21.90;99.90;;;;;;5075457;28;20298;-74
2022/07/30 09:01:40;;;;;;;0.00;0.00;;;21.90;99.90;;;;;;5064452;28;20267;-74
2022/07/30 09:04:07;;;;;;;0.00;0.00;;;21.90;99.90;;;;;;5064535;28;20017;-74
2022/07/30 09:06:32;;;;;;;0.00;0.00;;;21.90;99.90;;;;;;5075548;28;20032;-73
2022/07/30 09:08:58;;;;;;;0.00;0.00;;;21.90;99.90;;;;;;5055531;28;20172;-74
2022/07/30 09:11:24;;;;;;;0.00;0.00;;;21.90;99.90;;;;;;5068598;28;20067;-74
2022/07/30 09:13:49;;;;;;;0.00;0.00;;;21.90;99.90;;;;;;5079237;28;20081;-74
2022/07/30 09:16:20;;;;;;;0.00;0.00;;;21.90;99.90;;;;;;5063569;28;20048;-74
2022/07/30 09:18:46;;;;;;;0.00;0.00;;;21.90;99.90;;;;;;5054021;28;20104;-74
2022/07/30 09:21:23;;;;;;;0.00;0.00;;;21.90;99.90;;;;;;5069459;28;20028;-74
2022/07/30 09:24:09;;;;;;;0.00;0.00;;;21.90;99.90;;;;;;5062315;28;20207;-74
2022/07/30 09:26:54;;;;;;;0.00;0.00;;;21.90;99.90;;;;;;5057072;28;20051;-73
2022/07/30 09:29:30;;;;;;;0.00;0.00;;;22.00;99.90;;;;;;5076203;28;20021;-72
2022/07/30 09:32:03;;;;;;;0.00;0.00;;;22.00;99.90;;;;;;5079922;28;20043;-75
2022/07/30 09:34:37;;;;;;;0.00;0.00;;;22.00;99.90;;;;;;5051738;28;20024;-73
2022/07/30 09:37:24;;;;;;;0.00;0.00;;;22.00;99.90;;;;;;5081947;28;20020;-72
2022/07/30 09:39:51;;;;;;;0.00;0.00;;;22.00;99.90;;;;;;5065670;28;20275;-73
2022/07/30 09:42:23;;;;;;;0.00;0.00;;;22.00;99.90;;;;;;5077053;28;20067;-74
2022/07/30 09:44:49;;;;;;;0.00;0.00;;;22.10;99.90;;;;;;5071953;28;20031;-76
2022/07/30 09:47:31;;;;;;;0.00;0.00;;;22.10;99.90;;;;;;5063959;28;20029;-76
2022/07/30 09:50:09;;;;;;;0.00;0.00;;;22.10;99.90;;;;;;5065382;28;20036;-74
2022/07/30 09:52:37;;;;;;;0.00;0.00;;;22.10;99.90;;;;;;5058534;28;20100;-75
2022/07/30 09:55:03;;;;;;;0.00;0.00;;;22.10;99.90;;;;;;5063830;28;20219;-75
2022/07/30 09:57:29;;;;;;;0.00;0.00;;;22.30;99.90;;;;;;5049135;28;20092;-75
2022/07/30 09:59:56;;;;;;;0.00;0.00;;;22.40;99.90;;;;;;5062716;28;20040;-75
2022/07/30 10:02:32;;;;;;;0.00;0.00;;;22.50;99.90;;;;;;5076426;28;20013;-74
2022/07/30 10:05:09;;;;;;;0.00;0.00;;;22.60;99.90;;;;;;5072529;28;20021;-75
2022/07/30 10:07:35;;;;;;;0.00;0.00;;;22.70;99.90;;;;;;5062629;28;20021;-75
2022/07/30 10:10:01;;;;;;;0.00;0.00;;;22.80;99.90;;;;;;5065125;28;20035;-76
2022/07/30 10:12:27;;;;;;;0.00;0.00;;;22.90;99.90;;;;;;5077039;28;20095;-75
2022/07/30 10:14:55;;;;;;;0.00;0.00;;;23.00;99.90;;;;;;5061480;28;20024;-74
2022/07/30 10:17:21;;;;;;;0.00;0.00;;;23.00;99.90;;;;;;5081789;28;20299;-76
2022/07/30 10:19:47;;;;;;;0.00;0.00;;;23.10;99.90;;;;;;5081567;28;20322;-76
2022/07/30 10:22:13;;;;;;;0.00;0.00;;;23.10;99.90;;;;;;5050076;28;20032;-76
2022/07/30 10:24:39;;;;;;;0.00;0.00;;;23.20;99.90;;;;;;5078520;28;20024;-76
2022/07/30 10:27:08;;;;;;;0.00;0.00;;;23.20;99.90;;;;;;5065715;28;20016;-76
2022/07/30 10:29:37;;;;;;;0.00;0.00;;;23.20;99.90;;;;;;5064773;28;20044;-78
2022/07/30 10:32:03;;;;;;;0.00;0.00;;;23.30;99.90;;;;;;5068503;28;20023;-76
2022/07/30 10:34:31;;;;;;;0.00;0.00;;;23.50;99.90;;;;;;5058101;28;20020;-78
2022/07/30 10:37:00;;;;;;;0.00;0.00;;;23.60;99.90;;;;;;5062031;28;20084;-76
2022/07/30 10:39:36;;;;;;;0.00;0.00;;;23.90;99.90;;;;;;5044232;28;20112;-77
2022/07/30 10:42:25;;;;;;;0.00;0.00;;;24.40;99.50;;;;;;5081665;28;20211;-75
2022/07/30 10:45:26;;;;;;;0.00;0.00;;;24.80;98.90;;;;;;5067627;28;20305;-76
2022/07/30 10:47:54;;;;;;;0.00;0.00;;;25.00;98.00;;;;;;5084853;28;20044;-76
2022/07/30 10:50:25;;;;;;;0.00;0.00;;;25.30;97.60;;;;;;5085138;28;20020;-75
2022/07/30 10:52:56;;;;;;;0.00;0.00;;;25.60;97.10;;;;;;5067868;28;20299;-78
2022/07/30 10:55:22;;;;;;;0.00;0.00;;;25.80;96.30;;;;;;5084621;28;20028;-80
2022/07/30 10:58:04;;;;;;;0.00;0.00;;;25.80;95.60;;;;;;5084823;28;20091;-80
2022/07/30 11:00:52;;;;;;;0.00;0.00;;;25.60;95.50;;;;;;5085821;28;20062;-79
2022/07/30 11:03:24;;;;;;;0.00;0.00;;;25.50;95.30;;;;;;5066057;28;20043;-80
2022/07/30 11:06:15;;;;;;;0.00;0.00;;;25.40;95.40;;;;;;5085543;28;20078;-79
2022/07/30 11:08:44;;;;;;;0.00;0.00;;;25.40;95.60;;;;;;5085194;28;20203;-79
2022/07/30 11:11:22;;;;;;;0.00;0.00;;;25.40;95.30;;;;;;5084981;28;20215;-81
2022/07/30 11:13:53;;;;;;;;;;;25.50;95.40;;;;;;5085707;28;20051;-82
2022/07/30 11:16:22;;;;;;;0.00;0.00;;;25.60;95.10;;;;;;5085186;28;19900;-82
2022/07/30 11:19:16;;;;;;;0.00;0.00;;;25.80;95.10;;;;;;5085737;28;20219;-82
2022/07/30 11:21:46;;;;;;;0.00;0.00;;;26.00;94.10;;;;;;5067420;28;20016;-76
2022/07/30 11:24:40;;;;;;;0.00;0.00;;;26.30;93.80;;;;;;5065914;28;20020;-77
2022/07/30 11:27:06;;;;;;;0.00;0.00;;;26.50;93.30;;;;;;5084287;28;20024;-76
2022/07/30 11:29:33;;;;;;;0.00;0.00;;;27.40;94.20;;;;;;5085073;28;20184;-75
2022/07/30 11:32:18;;;;;;;;;;;28.20;90.90;;;;;;5085540;28;20028;-80
2022/07/30 11:34:43;;;;;;;0.00;0.00;;;28.40;89.60;;;;;;5067320;28;19901;-79
2022/07/30 11:37:17;;;;;;;0.00;0.00;;;28.60;88.30;;;;;;5084226;28;20031;-81
2022/07/30 11:39:55;;;;;;;0.00;0.00;;;28.50;87.30;;;;;;5065945;28;20099;-82
2022/07/30 11:42:29;;;;;;;0.00;0.00;;;28.90;85.00;;;;;;5065059;28;20016;-83
2022/07/30 11:45:14;;;;;;;0.00;0.00;;;28.60;85.20;;;;;;5064673;28;20017;-82
2022/07/30 11:47:43;;;;;;;0.00;0.00;;;27.90;85.90;;;;;;5064718;28;20056;-82
2022/07/30 11:50:26;;;;;;;0.00;0.00;;;27.20;88.10;;;;;;5064534;28;20024;-82
2022/07/30 11:53:16;;;;;;;0.00;0.00;;;26.90;90.10;;;;;;5069851;28;20013;-82
2022/07/30 11:55:44;;;;;;;0.00;0.00;;;26.70;89.80;;;;;;5054136;28;20028;-83
2022/07/30 11:58:28;;;;;;;0.00;0.00;;;26.50;90.40;;;;;;5084637;28;20032;-83
2022/07/30 12:00:57;;;;;;;0.00;0.00;;;26.30;90.60;;;;;;5067256;28;20048;-81
2022/07/30 12:03:25;;;;;;;0.00;0.00;;;26.20;90.80;;;;;;5084615;28;20088;-82
2022/07/30 12:05:51;;;;;;;0.00;0.00;;;26.10;91.20;;;;;;5085084;28;20016;-83
2022/07/30 12:08:18;;;;;;;0.00;0.00;;;26.00;91.10;;;;;;5066439;28;20024;-82
2022/07/30 12:10:55;;;;;;;0.00;0.00;;;25.80;91.30;;;;;;5084833;28;20416;-83
2022/07/30 12:13:21;;;;;;;0.00;0.00;;;25.80;91.70;;;;;;5069275;28;20028;-83
2022/07/30 12:15:47;;;;;;;0.00;0.00;;;25.80;91.40;;;;;;5084692;28;20027;-82
2022/07/30 12:18:23;;;;;;;0.00;0.00;;;25.80;91.60;;;;;;5084034;28;20078;-82
2022/07/30 12:20:57;;;;;;;0.00;0.00;;;25.70;91.20;;;;;;5066924;28;20021;-85
2022/07/30 12:23:23;;;;;;;0.00;0.00;;;25.60;91.30;;;;;;5066060;28;20048;-83
2022/07/30 12:25:49;;;;;;;0.00;0.00;;;25.40;91.80;;;;;;5083958;28;20020;-84
2022/07/30 12:28:27;;;;;;;0.00;0.00;;;25.40;91.90;;;;;;5084127;28;20086;-83
2022/07/30 12:30:54;;;;;;;0.00;0.00;;;25.40;92.00;;;;;;5066452;28;20031;-83
2022/07/30 12:33:21;;;;;;;0.00;0.00;;;25.40;92.10;;;;;;5083631;28;20021;-84
2022/07/30 12:35:55;;;;;;;0.00;0.00;;;25.30;91.90;;;;;;5084350;28;20264;-84
2022/07/30 12:38:23;;;;;;;0.00;0.00;;;25.20;91.90;;;;;;5083972;28;20278;-83
2022/07/30 12:40:58;;;;;;;0.00;0.00;;;25.10;92.10;;;;;;5087842;28;20017;-83
2022/07/30 12:43:46;;;;;;;0.00;0.00;;;25.00;92.20;;;;;;5065774;28;20044;-83
2022/07/30 12:46:15;;;;;;;0.00;0.00;;;25.00;92.60;;;;;;5083520;28;20227;-83
2022/07/30 12:49:01;;;;;;;0.00;0.00;;;25.00;92.50;;;;;;5065355;28;20040;-83
2022/07/30 12:51:31;;;;;;;0.00;0.00;;;25.00;92.30;;;;;;5083577;28;20302;-83
2022/07/30 12:53:58;;;;;;;0.00;0.00;;;25.10;92.40;;;;;;5083683;28;20254;-83
2022/07/30 12:56:27;;;;;;;0.00;0.00;;;25.20;92.30;;;;;;5083016;28;20028;-81